49.7°F
Current conditions from King Hill
Updated every 5 minutes
 
  Saturday September 20, 2014

Station Historical Data
Daily Summary for January 13, 2010 Units:  Both    English   Metric
« Previous Day
Next Day »
Daily Weekly Monthly Yearly Custom
  High: Low: Average:
Temperature: 16.7 °F /  -8.5 °C -2.3 °F /  -19.1 °C 9.2 °F /  -12.7 °C
Dew Point: 14.0 °F /  -10 °C -6.4 °F /  -21.3 °C 4.6 °F /  -15.2 °C
Humidity: 92% 66% 81%
Wind Speed: 5.0mph /  8km/h - 2.4mph /  3.9km/h
Wind Gust: 10.0mph /  16.1km/h - -
Wind- - SSW
Pressure: 30.18 in /  1021.9 hPa 30.11 in /  1019.5 hPa -
Precipitation: 0.00 in /  0 mm    
Historical Graphs
 
 
Tabular Data for January 13, 2010
Time Temperature Dew Point Pressure Wind Wind Speed Wind Gust Humidity Daily Rainfall
00:02 4.9 °F /  -15.1 °C -1.0 °F /  -18.3 °C 30.13in /  1020.2hPa NNW 1.0mph /  1.6km/h 8.0mph /  12.9km/h 76% 0.00in /  0mm
00:07 4.8 °F /  -15.1 °C -1.1 °F /  -18.4 °C 30.13in /  1020.2hPa Calm   3.0mph /  4.8km/h 76% 0.00in /  0mm
00:12 4.8 °F /  -15.1 °C -1.1 °F /  -18.4 °C 30.13in /  1020.2hPa Calm   2.0mph /  3.2km/h 76% 0.00in /  0mm
00:17 4.7 °F /  -15.2 °C -1.2 °F /  -18.4 °C 30.13in /  1020.2hPa Calm   2.0mph /  3.2km/h 76% 0.00in /  0mm
00:22 4.7 °F /  -15.2 °C -0.9 °F /  -18.3 °C 30.13in /  1020.2hPa Calm   1.0mph /  1.6km/h 77% 0.00in /  0mm
00:27 4.8 °F /  -15.1 °C -0.8 °F /  -18.2 °C 30.13in /  1020.2hPa NNE 1.0mph /  1.6km/h 5.0mph /  8km/h 77% 0.00in /  0mm
00:32 4.9 °F /  -15.1 °C -0.7 °F /  -18.2 °C 30.12in /  1019.9hPa Calm   5.0mph /  8km/h 77% 0.00in /  0mm
00:37 5.0 °F /  -15 °C -0.6 °F /  -18.1 °C 30.12in /  1019.9hPa Calm   2.0mph /  3.2km/h 77% 0.00in /  0mm
00:42 5.0 °F /  -15 °C 1.7 °F /  -16.8 °C 30.12in /  1019.9hPa Calm   3.0mph /  4.8km/h 86% 0.00in /  0mm
00:47 4.8 °F /  -15.1 °C -0.8 °F /  -18.2 °C 30.12in /  1019.9hPa Calm   3.0mph /  4.8km/h 77% 0.00in /  0mm
00:52 4.5 °F /  -15.3 °C -1.1 °F /  -18.4 °C 30.12in /  1019.9hPa Calm   1.0mph /  1.6km/h 77% 0.00in /  0mm
00:57 4.5 °F /  -15.3 °C -0.8 °F /  -18.2 °C 30.12in /  1019.9hPa Calm   2.0mph /  3.2km/h 78% 0.00in /  0mm
01:02 4.5 °F /  -15.3 °C -0.8 °F /  -18.2 °C 30.12in /  1019.9hPa Calm   2.0mph /  3.2km/h 78% 0.00in /  0mm
01:07 4.5 °F /  -15.3 °C -0.8 °F /  -18.2 °C 30.12in /  1019.9hPa Calm   2.0mph /  3.2km/h 78% 0.00in /  0mm
01:12 4.6 °F /  -15.2 °C -0.7 °F /  -18.2 °C 30.12in /  1019.9hPa Calm   2.0mph /  3.2km/h 78% 0.00in /  0mm
01:17 4.5 °F /  -15.3 °C -0.8 °F /  -18.2 °C 30.12in /  1019.9hPa Calm   1.0mph /  1.6km/h 78% 0.00in /  0mm
01:22 4.2 °F /  -15.4 °C -1.1 °F /  -18.4 °C 30.13in /  1020.2hPa Calm     78% 0.00in /  0mm
01:27 4.0 °F /  -15.6 °C -1.1 °F /  -18.4 °C 30.13in /  1020.2hPa Calm     79% 0.00in /  0mm
01:32 3.8 °F /  -15.7 °C -1.3 °F /  -18.5 °C 30.13in /  1020.2hPa Calm     79% 0.00in /  0mm
01:37 3.7 °F /  -15.7 °C -1.4 °F /  -18.6 °C 30.13in /  1020.2hPa Calm     79% 0.00in /  0mm
01:42 3.6 °F /  -15.8 °C -1.5 °F /  -18.6 °C 30.13in /  1020.2hPa Calm     79% 0.00in /  0mm
01:47 3.2 °F /  -16 °C -1.8 °F /  -18.8 °C 30.13in /  1020.2hPa Calm     79% 0.00in /  0mm
01:52 2.9 °F /  -16.2 °C -1.9 °F /  -18.8 °C 30.13in /  1020.2hPa Calm     80% 0.00in /  0mm
01:57 2.7 °F /  -16.3 °C -2.3 °F /  -19.1 °C 30.13in /  1020.2hPa Calm     79% 0.00in /  0mm
02:02 2.0 °F /  -16.7 °C -3.0 °F /  -19.4 °C 30.13in /  1020.2hPa Calm     79% 0.00in /  0mm
02:07 1.7 °F /  -16.8 °C -2.8 °F /  -19.3 °C 30.13in /  1020.2hPa Calm     81% 0.00in /  0mm
02:12 1.9 °F /  -16.7 °C -2.6 °F /  -19.2 °C 30.13in /  1020.2hPa Calm     81% 0.00in /  0mm
02:17 2.2 °F /  -16.6 °C -2.0 °F /  -18.9 °C 30.13in /  1020.2hPa Calm     82% 0.00in /  0mm
02:22 2.3 °F /  -16.5 °C -2.2 °F /  -19 °C 30.13in /  1020.2hPa Calm     81% 0.00in /  0mm
02:27 2.3 °F /  -16.5 °C -2.2 °F /  -19 °C 30.13in /  1020.2hPa Calm     81% 0.00in /  0mm
02:32 2.4 °F /  -16.4 °C -2.1 °F /  -18.9 °C 30.13in /  1020.2hPa Calm     81% 0.00in /  0mm
02:37 2.3 °F /  -16.5 °C -2.2 °F /  -19 °C 30.13in /  1020.2hPa Calm     81% 0.00in /  0mm
02:42 1.5 °F /  -16.9 °C -3.2 °F /  -19.6 °C 30.13in /  1020.2hPa Calm     80% 0.00in /  0mm
02:47 1.2 °F /  -17.1 °C -3.3 °F /  -19.6 °C 30.13in /  1020.2hPa Calm     81% 0.00in /  0mm
02:52 0.7 °F /  -17.4 °C -3.8 °F /  -19.9 °C 30.14in /  1020.5hPa Calm     81% 0.00in /  0mm
02:57 1.1 °F /  -17.2 °C -3.1 °F /  -19.5 °C 30.14in /  1020.5hPa Calm     82% 0.00in /  0mm
03:02 1.8 °F /  -16.8 °C -2.2 °F /  -19 °C 30.14in /  1020.5hPa Calm   1.0mph /  1.6km/h 83% 0.00in /  0mm
03:07 1.6 °F /  -16.9 °C -2.9 °F /  -19.4 °C 30.14in /  1020.5hPa Calm   1.0mph /  1.6km/h 81% 0.00in /  0mm
03:12 1.3 °F /  -17.1 °C -3.2 °F /  -19.6 °C 30.14in /  1020.5hPa Calm   1.0mph /  1.6km/h 81% 0.00in /  0mm
03:17 1.3 °F /  -17.1 °C -3.2 °F /  -19.6 °C 30.14in /  1020.5hPa Calm   2.0mph /  3.2km/h 81% 0.00in /  0mm
03:22 0.9 °F /  -17.3 °C -3.6 °F /  -19.8 °C 30.14in /  1020.5hPa Calm   2.0mph /  3.2km/h 81% 0.00in /  0mm
03:27 0.2 °F /  -17.7 °C -4.5 °F /  -20.3 °C 30.14in /  1020.5hPa Calm     80% 0.00in /  0mm
03:32 -0.2 °F /  -17.9 °C -4.6 °F /  -20.3 °C 30.14in /  1020.5hPa Calm     81% 0.00in /  0mm
03:37 -0.7 °F /  -18.2 °C -5.1 °F /  -20.6 °C 30.14in /  1020.5hPa Calm   1.0mph /  1.6km/h 81% 0.00in /  0mm
03:42 -0.4 °F /  -18 °C -4.3 °F /  -20.2 °C 30.15in /  1020.9hPa Calm   1.0mph /  1.6km/h 83% 0.00in /  0mm
03:47 -0.4 °F /  -18 °C -4.6 °F /  -20.3 °C 30.15in /  1020.9hPa Calm     82% 0.00in /  0mm
03:52 -0.6 °F /  -18.1 °C -4.8 °F /  -20.4 °C 30.15in /  1020.9hPa Calm     82% 0.00in /  0mm
03:57 -1.0 °F /  -18.3 °C -5.2 °F /  -20.7 °C 30.15in /  1020.9hPa Calm     82% 0.00in /  0mm
04:02 -1.4 °F /  -18.6 °C -5.6 °F /  -20.9 °C 30.15in /  1020.9hPa Calm     82% 0.00in /  0mm
04:07 -1.3 °F /  -18.5 °C -5.2 °F /  -20.7 °C 30.15in /  1020.9hPa Calm     83% 0.00in /  0mm
04:12 -1.3 °F /  -18.5 °C -5.2 °F /  -20.7 °C 30.15in /  1020.9hPa Calm     83% 0.00in /  0mm
04:17 -0.8 °F /  -18.2 °C -4.5 °F /  -20.3 °C 30.15in /  1020.9hPa Calm     84% 0.00in /  0mm
04:22 -0.6 °F /  -18.1 °C -4.3 °F /  -20.2 °C 30.15in /  1020.9hPa Calm     84% 0.00in /  0mm
04:27 -0.5 °F /  -18.1 °C -4.2 °F /  -20.1 °C 30.15in /  1020.9hPa Calm     84% 0.00in /  0mm
04:32 -0.8 °F /  -18.2 °C -4.7 °F /  -20.4 °C 30.15in /  1020.9hPa Calm     83% 0.00in /  0mm
04:37 -0.5 °F /  -18.1 °C -4.2 °F /  -20.1 °C 30.15in /  1020.9hPa Calm     84% 0.00in /  0mm
04:42 -0.2 °F /  -17.9 °C -3.9 °F /  -19.9 °C 30.15in /  1020.9hPa Calm     84% 0.00in /  0mm
04:47 0.4 °F /  -17.6 °C -3.3 °F /  -19.6 °C 30.15in /  1020.9hPa NE 1.0mph /  1.6km/h 2.0mph /  3.2km/h 84% 0.00in /  0mm
04:52 1.1 °F /  -17.2 °C -2.6 °F /  -19.2 °C 30.15in /  1020.9hPa Calm   2.0mph /  3.2km/h 84% 0.00in /  0mm
04:57 1.3 °F /  -17.1 °C -2.7 °F /  -19.3 °C 30.15in /  1020.9hPa Calm   3.0mph /  4.8km/h 83% 0.00in /  0mm
05:02 1.4 °F /  -17 °C -2.6 °F /  -19.2 °C 30.15in /  1020.9hPa Calm   3.0mph /  4.8km/h 83% 0.00in /  0mm
05:07 1.0 °F /  -17.2 °C -3.2 °F /  -19.6 °C 30.15in /  1020.9hPa Calm   2.0mph /  3.2km/h 82% 0.00in /  0mm
05:12 0.7 °F /  -17.4 °C -3.5 °F /  -19.7 °C 30.15in /  1020.9hPa Calm   1.0mph /  1.6km/h 82% 0.00in /  0mm
05:17 0.2 °F /  -17.7 °C -4.0 °F /  -20 °C 30.15in /  1020.9hPa Calm     82% 0.00in /  0mm
05:22 0.2 °F /  -17.7 °C -3.7 °F /  -19.8 °C 30.15in /  1020.9hPa Calm     83% 0.00in /  0mm
05:27 0.1 °F /  -17.7 °C -4.1 °F /  -20.1 °C 30.15in /  1020.9hPa Calm     82% 0.00in /  0mm
05:32 0.2 °F /  -17.7 °C -3.7 °F /  -19.8 °C 30.15in /  1020.9hPa Calm     83% 0.00in /  0mm
05:37 0.3 °F /  -17.6 °C -3.6 °F /  -19.8 °C 30.15in /  1020.9hPa Calm     83% 0.00in /  0mm
05:42 0.6 °F /  -17.4 °C -3.3 °F /  -19.6 °C 30.15in /  1020.9hPa Calm     83% 0.00in /  0mm
05:47 0.7 °F /  -17.4 °C -3.2 °F /  -19.6 °C 30.15in /  1020.9hPa Calm     83% 0.00in /  0mm
05:52 0.4 °F /  -17.6 °C -3.8 °F /  -19.9 °C 30.15in /  1020.9hPa Calm     82% 0.00in /  0mm
05:57 -0.1 °F /  -17.8 °C -4.3 °F /  -20.2 °C 30.15in /  1020.9hPa Calm     82% 0.00in /  0mm
06:02 -0.8 °F /  -18.2 °C -5.2 °F /  -20.7 °C 30.15in /  1020.9hPa Calm     81% 0.00in /  0mm
06:07 -1.2 °F /  -18.4 °C -5.4 °F /  -20.8 °C 30.16in /  1021.2hPa Calm     82% 0.00in /  0mm
06:12 -1.4 °F /  -18.6 °C -5.6 °F /  -20.9 °C 30.15in /  1020.9hPa Calm     82% 0.00in /  0mm
06:17 -1.8 °F /  -18.8 °C -5.9 °F /  -21.1 °C 30.16in /  1021.2hPa Calm     82% 0.00in /  0mm
06:22 -1.8 °F /  -18.8 °C -5.7 °F /  -20.9 °C 30.16in /  1021.2hPa Calm     83% 0.00in /  0mm
06:27 -1.9 °F /  -18.8 °C -5.8 °F /  -21 °C 30.16in /  1021.2hPa Calm     83% 0.00in /  0mm
06:32 -2.1 °F /  -18.9 °C -6.0 °F /  -21.1 °C 30.16in /  1021.2hPa Calm     83% 0.00in /  0mm
06:37 -2.3 °F /  -19.1 °C -6.4 °F /  -21.3 °C 30.16in /  1021.2hPa Calm     82% 0.00in /  0mm
06:42 -1.7 °F /  -18.7 °C -5.4 °F /  -20.8 °C 30.16in /  1021.2hPa Calm     84% 0.00in /  0mm
06:47 -1.5 °F /  -18.6 °C -5.2 °F /  -20.7 °C 30.16in /  1021.2hPa Calm     84% 0.00in /  0mm
06:52 -1.2 °F /  -18.4 °C -4.9 °F /  -20.5 °C 30.16in /  1021.2hPa Calm     84% 0.00in /  0mm
06:57 -1.4 °F /  -18.6 °C -5.3 °F /  -20.7 °C 30.16in /  1021.2hPa Calm     83% 0.00in /  0mm
07:02 -1.7 °F /  -18.7 °C -5.6 °F /  -20.9 °C 30.16in /  1021.2hPa Calm     83% 0.00in /  0mm
07:07 -1.2 °F /  -18.4 °C -4.9 °F /  -20.5 °C 30.16in /  1021.2hPa Calm     84% 0.00in /  0mm
07:12 -1.1 °F /  -18.4 °C -5.0 °F /  -20.6 °C 30.17in /  1021.6hPa Calm     83% 0.00in /  0mm
07:17 -1.1 °F /  -18.4 °C -5.0 °F /  -20.6 °C 30.17in /  1021.6hPa Calm     83% 0.00in /  0mm
07:22 -1.0 °F /  -18.3 °C -4.9 °F /  -20.5 °C 30.17in /  1021.6hPa Calm     83% 0.00in /  0mm
07:27 -1.5 °F /  -18.6 °C -5.7 °F /  -20.9 °C 30.17in /  1021.6hPa Calm     82% 0.00in /  0mm
07:32 -1.1 °F /  -18.4 °C -5.0 °F /  -20.6 °C 30.17in /  1021.6hPa Calm     83% 0.00in /  0mm
07:37 -0.3 °F /  -17.9 °C -4.0 °F /  -20 °C 30.17in /  1021.6hPa Calm     84% 0.00in /  0mm
07:42 0.1 °F /  -17.7 °C -3.6 °F /  -19.8 °C 30.17in /  1021.6hPa Calm     84% 0.00in /  0mm
07:47 0.1 °F /  -17.7 °C -3.6 °F /  -19.8 °C 30.17in /  1021.6hPa Calm     84% 0.00in /  0mm
07:52 1.0 °F /  -17.2 °C -2.7 °F /  -19.3 °C 30.18in /  1021.9hPa Calm     84% 0.00in /  0mm
07:57 1.4 °F /  -17 °C -2.3 °F /  -19.1 °C 30.17in /  1021.6hPa Calm     84% 0.00in /  0mm
08:02 1.1 °F /  -17.2 °C -2.9 °F /  -19.4 °C 30.17in /  1021.6hPa Calm     83% 0.00in /  0mm
08:07 0.6 °F /  -17.4 °C -3.6 °F /  -19.8 °C 30.17in /  1021.6hPa Calm     82% 0.00in /  0mm
08:12 0.4 °F /  -17.6 °C -3.8 °F /  -19.9 °C 30.17in /  1021.6hPa Calm     82% 0.00in /  0mm
08:17 0.1 °F /  -17.7 °C -4.3 °F /  -20.2 °C 30.18in /  1021.9hPa Calm     81% 0.00in /  0mm
08:22 0.2 °F /  -17.7 °C -4.0 °F /  -20 °C 30.18in /  1021.9hPa Calm     82% 0.00in /  0mm
08:27 1.1 °F /  -17.2 °C -2.9 °F /  -19.4 °C 30.18in /  1021.9hPa Calm   1.0mph /  1.6km/h 83% 0.00in /  0mm
08:32 2.0 °F /  -16.7 °C -1.7 °F /  -18.7 °C 30.17in /  1021.6hPa Calm   1.0mph /  1.6km/h 84% 0.00in /  0mm
08:37 2.3 °F /  -16.5 °C -1.7 °F /  -18.7 °C 30.17in /  1021.6hPa Calm   1.0mph /  1.6km/h 83% 0.00in /  0mm
08:42 3.1 °F /  -16.1 °C -0.9 °F /  -18.3 °C 30.17in /  1021.6hPa Calm     83% 0.00in /  0mm
08:47 3.7 °F /  -15.7 °C 0.0 °F /  -17.8 °C 30.17in /  1021.6hPa Calm     84% 0.00in /  0mm
08:52 4.5 °F /  -15.3 °C 0.7 °F /  -17.4 °C 30.17in /  1021.6hPa Calm     84% 0.00in /  0mm
08:57 5.4 °F /  -14.8 °C 1.4 °F /  -17 °C 30.17in /  1021.6hPa Calm     83% 0.00in /  0mm
09:02 6.2 °F /  -14.3 °C 2.1 °F /  -16.6 °C 30.17in /  1021.6hPa Calm     83% 0.00in /  0mm
09:07 7.1 °F /  -13.8 °C 2.8 °F /  -16.2 °C 30.18in /  1021.9hPa Calm     82% 0.00in /  0mm
09:12 7.8 °F /  -13.4 °C 3.2 °F /  -16 °C 30.18in /  1021.9hPa Calm     81% 0.00in /  0mm
09:17 8.5 °F /  -13.1 °C 3.3 °F /  -15.9 °C 30.18in /  1021.9hPa Calm     79% 0.00in /  0mm
09:22 8.9 °F /  -12.8 °C 3.7 °F /  -15.7 °C 30.18in /  1021.9hPa Calm     79% 0.00in /  0mm
09:27 9.2 °F /  -12.7 °C 4.0 °F /  -15.6 °C 30.18in /  1021.9hPa Calm     79% 0.00in /  0mm
09:32 9.1 °F /  -12.7 °C 3.6 °F /  -15.8 °C 30.18in /  1021.9hPa Calm     78% 0.00in /  0mm
09:37 9.4 °F /  -12.6 °C 3.1 °F /  -16.1 °C 30.18in /  1021.9hPa SSW 1.0mph /  1.6km/h 3.0mph /  4.8km/h 75% 0.00in /  0mm
09:42 9.9 °F /  -12.3 °C 2.7 °F /  -16.3 °C 30.18in /  1021.9hPa SSW 2.0mph /  3.2km/h 3.0mph /  4.8km/h 72% 0.00in /  0mm
09:47 10.4 °F /  -12 °C 2.6 °F /  -16.3 °C 30.18in /  1021.9hPa SSW 3.0mph /  4.8km/h 4.0mph /  6.4km/h 70% 0.00in /  0mm
09:52 10.5 °F /  -11.9 °C 2.3 °F /  -16.5 °C 30.18in /  1021.9hPa SSW 1.0mph /  1.6km/h 4.0mph /  6.4km/h 69% 0.00in /  0mm
09:57 10.4 °F /  -12 °C 1.9 °F /  -16.7 °C 30.18in /  1021.9hPa SW 4.0mph /  6.4km/h 5.0mph /  8km/h 68% 0.00in /  0mm
10:02 10.4 °F /  -12 °C 1.6 °F /  -16.9 °C 30.18in /  1021.9hPa SSW 2.0mph /  3.2km/h 5.0mph /  8km/h 67% 0.00in /  0mm
10:07 10.5 °F /  -11.9 °C 2.0 °F /  -16.7 °C 30.18in /  1021.9hPa SSW 2.0mph /  3.2km/h 5.0mph /  8km/h 68% 0.00in /  0mm
10:12 10.8 °F /  -11.8 °C 2.3 °F /  -16.5 °C 30.18in /  1021.9hPa SSW 3.0mph /  4.8km/h 5.0mph /  8km/h 68% 0.00in /  0mm
10:17 11.0 °F /  -11.7 °C 2.5 °F /  -16.4 °C 30.18in /  1021.9hPa SSW 4.0mph /  6.4km/h 6.0mph /  9.7km/h 68% 0.00in /  0mm
10:22 11.1 °F /  -11.6 °C 2.3 °F /  -16.5 °C 30.18in /  1021.9hPa SSW 5.0mph /  8km/h 7.0mph /  11.3km/h 67% 0.00in /  0mm
10:27 11.0 °F /  -11.7 °C 2.5 °F /  -16.4 °C 30.18in /  1021.9hPa SSW 4.0mph /  6.4km/h 7.0mph /  11.3km/h 68% 0.00in /  0mm
10:32 11.1 °F /  -11.6 °C 2.6 °F /  -16.3 °C 30.18in /  1021.9hPa SSW 3.0mph /  4.8km/h 6.0mph /  9.7km/h 68% 0.00in /  0mm
10:37 11.3 °F /  -11.5 °C 2.8 °F /  -16.2 °C 30.18in /  1021.9hPa SSW 2.0mph /  3.2km/h 6.0mph /  9.7km/h 68% 0.00in /  0mm
10:42 11.4 °F /  -11.4 °C 2.6 °F /  -16.3 °C 30.18in /  1021.9hPa SSW 3.0mph /  4.8km/h 6.0mph /  9.7km/h 67% 0.00in /  0mm
10:47 11.5 °F /  -11.4 °C 3.0 °F /  -16.1 °C 30.17in /  1021.6hPa SSW 2.0mph /  3.2km/h 5.0mph /  8km/h 68% 0.00in /  0mm
10:52 11.6 °F /  -11.3 °C 2.8 °F /  -16.2 °C 30.18in /  1021.9hPa SSW 3.0mph /  4.8km/h 5.0mph /  8km/h 67% 0.00in /  0mm
10:57 11.5 °F /  -11.4 °C 2.3 °F /  -16.5 °C 30.17in /  1021.6hPa SSW 4.0mph /  6.4km/h 7.0mph /  11.3km/h 66% 0.00in /  0mm
11:02 11.4 °F /  -11.4 °C 2.6 °F /  -16.3 °C 30.17in /  1021.6hPa SSW 3.0mph /  4.8km/h 7.0mph /  11.3km/h 67% 0.00in /  0mm
11:07 11.6 °F /  -11.3 °C 2.8 °F /  -16.2 °C 30.17in /  1021.6hPa SSW 3.0mph /  4.8km/h 8.0mph /  12.9km/h 67% 0.00in /  0mm
11:12 12.1 °F /  -11.1 °C 3.6 °F /  -15.8 °C 30.17in /  1021.6hPa SSW 2.0mph /  3.2km/h 8.0mph /  12.9km/h 68% 0.00in /  0mm
11:17 12.2 °F /  -11 °C 4.0 °F /  -15.6 °C 30.17in /  1021.6hPa SSW 4.0mph /  6.4km/h 7.0mph /  11.3km/h 69% 0.00in /  0mm
11:22 12.2 °F /  -11 °C 4.0 °F /  -15.6 °C 30.17in /  1021.6hPa SSW 3.0mph /  4.8km/h 8.0mph /  12.9km/h 69% 0.00in /  0mm
11:27 12.5 °F /  -10.8 °C 4.6 °F /  -15.2 °C 30.17in /  1021.6hPa South 3.0mph /  4.8km/h 8.0mph /  12.9km/h 70% 0.00in /  0mm
11:32 12.8 °F /  -10.7 °C 4.9 °F /  -15.1 °C 30.16in /  1021.2hPa SSW 3.0mph /  4.8km/h 6.0mph /  9.7km/h 70% 0.00in /  0mm
11:37 13.4 °F /  -10.3 °C 5.1 °F /  -14.9 °C 30.16in /  1021.2hPa SSW 3.0mph /  4.8km/h 5.0mph /  8km/h 69% 0.00in /  0mm
11:42 13.7 °F /  -10.2 °C 5.1 °F /  -14.9 °C 30.16in /  1021.2hPa SSW 3.0mph /  4.8km/h 5.0mph /  8km/h 68% 0.00in /  0mm
11:47 13.7 °F /  -10.2 °C 5.1 °F /  -14.9 °C 30.16in /  1021.2hPa SSW 3.0mph /  4.8km/h 5.0mph /  8km/h 68% 0.00in /  0mm
11:52 13.7 °F /  -10.2 °C 5.4 °F /  -14.8 °C 30.16in /  1021.2hPa SSW 3.0mph /  4.8km/h 6.0mph /  9.7km/h 69% 0.00in /  0mm
11:57 13.7 °F /  -10.2 °C 5.4 °F /  -14.8 °C 30.15in /  1020.9hPa SSW 4.0mph /  6.4km/h 6.0mph /  9.7km/h 69% 0.00in /  0mm
12:02 13.6 °F /  -10.2 °C 5.6 °F /  -14.7 °C 30.15in /  1020.9hPa SSW 3.0mph /  4.8km/h 6.0mph /  9.7km/h 70% 0.00in /  0mm
12:07 13.6 °F /  -10.2 °C 5.6 °F /  -14.7 °C 30.15in /  1020.9hPa SSW 3.0mph /  4.8km/h 5.0mph /  8km/h 70% 0.00in /  0mm
12:12 13.6 °F /  -10.2 °C 5.9 °F /  -14.5 °C 30.14in /  1020.5hPa SSW 2.0mph /  3.2km/h 5.0mph /  8km/h 71% 0.00in /  0mm
12:17 13.6 °F /  -10.2 °C 5.9 °F /  -14.5 °C 30.13in /  1020.2hPa SSW 3.0mph /  4.8km/h 5.0mph /  8km/h 71% 0.00in /  0mm
12:22 13.6 °F /  -10.2 °C 6.3 °F /  -14.3 °C 30.13in /  1020.2hPa SSW 3.0mph /  4.8km/h 5.0mph /  8km/h 72% 0.00in /  0mm
12:27 13.6 °F /  -10.2 °C 6.6 °F /  -14.1 °C 30.13in /  1020.2hPa SSW 3.0mph /  4.8km/h 5.0mph /  8km/h 73% 0.00in /  0mm
12:32 13.6 °F /  -10.2 °C 6.6 °F /  -14.1 °C 30.13in /  1020.2hPa SSW 3.0mph /  4.8km/h 5.0mph /  8km/h 73% 0.00in /  0mm
12:37 13.3 °F /  -10.4 °C 6.6 °F /  -14.1 °C 30.13in /  1020.2hPa SSW 3.0mph /  4.8km/h 5.0mph /  8km/h 74% 0.00in /  0mm
12:42 13.2 °F /  -10.4 °C 6.5 °F /  -14.2 °C 30.13in /  1020.2hPa SSW 3.0mph /  4.8km/h 6.0mph /  9.7km/h 74% 0.00in /  0mm
12:47 13.2 °F /  -10.4 °C 7.1 °F /  -13.8 °C 30.13in /  1020.2hPa SSW 2.0mph /  3.2km/h 6.0mph /  9.7km/h 76% 0.00in /  0mm
12:52 13.5 °F /  -10.3 °C 7.6 °F /  -13.6 °C 30.13in /  1020.2hPa South 2.0mph /  3.2km/h 5.0mph /  8km/h 77% 0.00in /  0mm
12:57 13.7 °F /  -10.2 °C 7.8 °F /  -13.4 °C 30.12in /  1019.9hPa South 2.0mph /  3.2km/h 5.0mph /  8km/h 77% 0.00in /  0mm
13:02 13.9 °F /  -10.1 °C 8.3 °F /  -13.2 °C 30.12in /  1019.9hPa Calm   5.0mph /  8km/h 78% 0.00in /  0mm
13:07 13.7 °F /  -10.2 °C 8.1 °F /  -13.3 °C 30.12in /  1019.9hPa SSW 2.0mph /  3.2km/h 4.0mph /  6.4km/h 78% 0.00in /  0mm
13:12 13.7 °F /  -10.2 °C 8.4 °F /  -13.1 °C 30.12in /  1019.9hPa SSW 1.0mph /  1.6km/h 4.0mph /  6.4km/h 79% 0.00in /  0mm
13:17 14.0 °F /  -10 °C 8.7 °F /  -12.9 °C 30.11in /  1019.5hPa South 1.0mph /  1.6km/h 4.0mph /  6.4km/h 79% 0.00in /  0mm
13:22 14.3 °F /  -9.8 °C 9.0 °F /  -12.8 °C 30.12in /  1019.9hPa Calm   3.0mph /  4.8km/h 79% 0.00in /  0mm
13:27 14.6 °F /  -9.7 °C 9.3 °F /  -12.6 °C 30.12in /  1019.9hPa SW 2.0mph /  3.2km/h 3.0mph /  4.8km/h 79% 0.00in /  0mm
13:32 14.6 °F /  -9.7 °C 9.3 °F /  -12.6 °C 30.11in /  1019.5hPa SW 2.0mph /  3.2km/h 3.0mph /  4.8km/h 79% 0.00in /  0mm
13:37 14.6 °F /  -9.7 °C 9.6 °F /  -12.4 °C 30.11in /  1019.5hPa SW 1.0mph /  1.6km/h 3.0mph /  4.8km/h 80% 0.00in /  0mm
13:42 14.9 °F /  -9.5 °C 9.8 °F /  -12.3 °C 30.11in /  1019.5hPa SSW 1.0mph /  1.6km/h 3.0mph /  4.8km/h 80% 0.00in /  0mm
13:47 15.0 °F /  -9.4 °C 9.9 °F /  -12.3 °C 30.11in /  1019.5hPa SW 2.0mph /  3.2km/h 3.0mph /  4.8km/h 80% 0.00in /  0mm
13:52 14.8 °F /  -9.6 °C 9.8 °F /  -12.3 °C 30.12in /  1019.9hPa SSW 1.0mph /  1.6km/h 3.0mph /  4.8km/h 80% 0.00in /  0mm
13:57 14.6 °F /  -9.7 °C 9.6 °F /  -12.4 °C 30.11in /  1019.5hPa SSW 2.0mph /  3.2km/h 4.0mph /  6.4km/h 80% 0.00in /  0mm
14:02 14.4 °F /  -9.8 °C 9.6 °F /  -12.4 °C 30.11in /  1019.5hPa Calm   4.0mph /  6.4km/h 81% 0.00in /  0mm
14:07 14.3 °F /  -9.8 °C 9.5 °F /  -12.5 °C 30.11in /  1019.5hPa SSW 1.0mph /  1.6km/h 4.0mph /  6.4km/h 81% 0.00in /  0mm
14:12 14.4 °F /  -9.8 °C 9.9 °F /  -12.3 °C 30.11in /  1019.5hPa SSW 1.0mph /  1.6km/h 3.0mph /  4.8km/h 82% 0.00in /  0mm
14:17 14.4 °F /  -9.8 °C 9.9 °F /  -12.3 °C 30.12in /  1019.9hPa Calm   3.0mph /  4.8km/h 82% 0.00in /  0mm
14:22 14.5 °F /  -9.7 °C 10.0 °F /  -12.2 °C 30.11in /  1019.5hPa SSW 1.0mph /  1.6km/h 2.0mph /  3.2km/h 82% 0.00in /  0mm
14:27 14.7 °F /  -9.6 °C 10.2 °F /  -12.1 °C 30.12in /  1019.9hPa SSW 1.0mph /  1.6km/h 3.0mph /  4.8km/h 82% 0.00in /  0mm
14:32 14.8 °F /  -9.6 °C 10.3 °F /  -12.1 °C 30.12in /  1019.9hPa SW 2.0mph /  3.2km/h 4.0mph /  6.4km/h 82% 0.00in /  0mm
14:37 14.8 °F /  -9.6 °C 10.3 °F /  -12.1 °C 30.12in /  1019.9hPa SW 2.0mph /  3.2km/h 4.0mph /  6.4km/h 82% 0.00in /  0mm
14:42 14.6 °F /  -9.7 °C 10.1 °F /  -12.2 °C 30.12in /  1019.9hPa SW 2.0mph /  3.2km/h 4.0mph /  6.4km/h 82% 0.00in /  0mm
14:47 14.6 °F /  -9.7 °C 10.1 °F /  -12.2 °C 30.11in /  1019.5hPa SSW 2.0mph /  3.2km/h 4.0mph /  6.4km/h 82% 0.00in /  0mm
14:52 14.5 °F /  -9.7 °C 10.3 °F /  -12.1 °C 30.11in /  1019.5hPa SSW 2.0mph /  3.2km/h 4.0mph /  6.4km/h 83% 0.00in /  0mm
14:57 14.4 °F /  -9.8 °C 10.2 °F /  -12.1 °C 30.11in /  1019.5hPa SW 2.0mph /  3.2km/h 4.0mph /  6.4km/h 83% 0.00in /  0mm
15:02 14.4 °F /  -9.8 °C 10.2 °F /  -12.1 °C 30.11in /  1019.5hPa SW 3.0mph /  4.8km/h 4.0mph /  6.4km/h 83% 0.00in /  0mm
15:07 14.3 °F /  -9.8 °C 12.4 °F /  -10.9 °C 30.11in /  1019.5hPa SSW 2.0mph /  3.2km/h 4.0mph /  6.4km/h 92% 0.00in /  0mm
15:12 14.3 °F /  -9.8 °C 10.4 °F /  -12 °C 30.11in /  1019.5hPa SW 2.0mph /  3.2km/h 4.0mph /  6.4km/h 84% 0.00in /  0mm
15:17 14.3 °F /  -9.8 °C 10.4 °F /  -12 °C 30.11in /  1019.5hPa SW 1.0mph /  1.6km/h 4.0mph /  6.4km/h 84% 0.00in /  0mm
15:22 14.3 °F /  -9.8 °C 10.4 °F /  -12 °C 30.11in /  1019.5hPa SSW 2.0mph /  3.2km/h 4.0mph /  6.4km/h 84% 0.00in /  0mm
15:27 14.2 °F /  -9.9 °C 10.3 °F /  -12.1 °C 30.11in /  1019.5hPa SSW 1.0mph /  1.6km/h 4.0mph /  6.4km/h 84% 0.00in /  0mm
15:32 14.2 °F /  -9.9 °C 10.3 °F /  -12.1 °C 30.11in /  1019.5hPa SSW 3.0mph /  4.8km/h 5.0mph /  8km/h 84% 0.00in /  0mm
15:37 14.2 °F /  -9.9 °C 10.3 °F /  -12.1 °C 30.11in /  1019.5hPa SSW 1.0mph /  1.6km/h 5.0mph /  8km/h 84% 0.00in /  0mm
15:42 14.2 °F /  -9.9 °C 10.5 °F /  -11.9 °C 30.11in /  1019.5hPa SSW 1.0mph /  1.6km/h 4.0mph /  6.4km/h 85% 0.00in /  0mm
15:47 14.2 °F /  -9.9 °C 10.5 °F /  -11.9 °C 30.11in /  1019.5hPa SSW 2.0mph /  3.2km/h 4.0mph /  6.4km/h 85% 0.00in /  0mm
15:52 14.2 °F /  -9.9 °C 10.5 °F /  -11.9 °C 30.11in /  1019.5hPa SW 1.0mph /  1.6km/h 4.0mph /  6.4km/h 85% 0.00in /  0mm
15:57 14.3 °F /  -9.8 °C 10.6 °F /  -11.9 °C 30.11in /  1019.5hPa Calm   4.0mph /  6.4km/h 85% 0.00in /  0mm
16:02 14.3 °F /  -9.8 °C 10.6 °F /  -11.9 °C 30.11in /  1019.5hPa SSW 1.0mph /  1.6km/h 3.0mph /  4.8km/h 85% 0.00in /  0mm
16:07 14.3 °F /  -9.8 °C 10.6 °F /  -11.9 °C 30.11in /  1019.5hPa Calm   3.0mph /  4.8km/h 85% 0.00in /  0mm
16:12 14.3 °F /  -9.8 °C 10.6 °F /  -11.9 °C 30.11in /  1019.5hPa Calm   1.0mph /  1.6km/h 85% 0.00in /  0mm
16:17 14.4 °F /  -9.8 °C 10.7 °F /  -11.8 °C 30.11in /  1019.5hPa SSW 1.0mph /  1.6km/h 3.0mph /  4.8km/h 85% 0.00in /  0mm
16:22 14.4 °F /  -9.8 °C 10.7 °F /  -11.8 °C 30.12in /  1019.9hPa SSW 1.0mph /  1.6km/h 3.0mph /  4.8km/h 85% 0.00in /  0mm
16:27 14.3 °F /  -9.8 °C 10.6 °F /  -11.9 °C 30.12in /  1019.9hPa Calm   3.0mph /  4.8km/h 85% 0.00in /  0mm
16:32 14.3 °F /  -9.8 °C 10.6 °F /  -11.9 °C 30.11in /  1019.5hPa Calm   3.0mph /  4.8km/h 85% 0.00in /  0mm
16:37 14.3 °F /  -9.8 °C 10.6 °F /  -11.9 °C 30.12in /  1019.9hPa SSW 1.0mph /  1.6km/h 3.0mph /  4.8km/h 85% 0.00in /  0mm
16:42 14.2 °F /  -9.9 °C 10.5 °F /  -11.9 °C 30.12in /  1019.9hPa SW 2.0mph /  3.2km/h 3.0mph /  4.8km/h 85% 0.00in /  0mm
16:47 14.1 °F /  -9.9 °C 10.4 °F /  -12 °C 30.12in /  1019.9hPa SSW 2.0mph /  3.2km/h 4.0mph /  6.4km/h 85% 0.00in /  0mm
16:52 14.0 °F /  -10 °C 10.3 °F /  -12.1 °C 30.12in /  1019.9hPa SSW 1.0mph /  1.6km/h 4.0mph /  6.4km/h 85% 0.00in /  0mm
16:57 14.0 °F /  -10 °C 10.3 °F /  -12.1 °C 30.12in /  1019.9hPa Calm   3.0mph /  4.8km/h 85% 0.00in /  0mm
17:02 14.0 °F /  -10 °C 10.6 °F /  -11.9 °C 30.12in /  1019.9hPa Calm   2.0mph /  3.2km/h 86% 0.00in /  0mm
17:07 14.1 °F /  -9.9 °C 10.7 °F /  -11.8 °C 30.12in /  1019.9hPa Calm   3.0mph /  4.8km/h 86% 0.00in /  0mm
17:12 14.1 °F /  -9.9 °C 10.7 °F /  -11.8 °C 30.12in /  1019.9hPa SSW 1.0mph /  1.6km/h 3.0mph /  4.8km/h 86% 0.00in /  0mm
17:17 14.1 °F /  -9.9 °C 10.7 °F /  -11.8 °C 30.12in /  1019.9hPa SSW 1.0mph /  1.6km/h 3.0mph /  4.8km/h 86% 0.00in /  0mm
17:22 14.1 °F /  -9.9 °C 10.7 °F /  -11.8 °C 30.12in /  1019.9hPa SSW 1.0mph /  1.6km/h 3.0mph /  4.8km/h 86% 0.00in /  0mm
17:27 14.2 °F /  -9.9 °C 10.8 °F /  -11.8 °C 30.13in /  1020.2hPa Calm   4.0mph /  6.4km/h 86% 0.00in /  0mm
17:32 14.1 °F /  -9.9 °C 10.7 °F /  -11.8 °C 30.13in /  1020.2hPa Calm   4.0mph /  6.4km/h 86% 0.00in /  0mm
17:37 14.2 °F /  -9.9 °C 10.8 °F /  -11.8 °C 30.13in /  1020.2hPa SSW 1.0mph /  1.6km/h 4.0mph /  6.4km/h 86% 0.00in /  0mm
17:42 14.3 °F /  -9.8 °C 10.9 °F /  -11.7 °C 30.13in /  1020.2hPa SSW 1.0mph /  1.6km/h 3.0mph /  4.8km/h 86% 0.00in /  0mm
17:47 14.4 °F /  -9.8 °C 11.0 °F /  -11.7 °C 30.12in /  1019.9hPa SW 1.0mph /  1.6km/h 3.0mph /  4.8km/h 86% 0.00in /  0mm
17:52 14.5 °F /  -9.7 °C 11.1 °F /  -11.6 °C 30.13in /  1020.2hPa SW 1.0mph /  1.6km/h 3.0mph /  4.8km/h 86% 0.00in /  0mm
17:57 14.5 °F /  -9.7 °C 11.1 °F /  -11.6 °C 30.13in /  1020.2hPa Calm   5.0mph /  8km/h 86% 0.00in /  0mm
18:02 14.6 °F /  -9.7 °C 11.2 °F /  -11.6 °C 30.13in /  1020.2hPa Calm   5.0mph /  8km/h 86% 0.00in /  0mm
18:07 14.8 °F /  -9.6 °C 11.4 °F /  -11.4 °C 30.13in /  1020.2hPa Calm   2.0mph /  3.2km/h 86% 0.00in /  0mm
18:17 14.8 °F /  -9.6 °C 11.4 °F /  -11.4 °C 30.13in /  1020.2hPa SSW 1.0mph /  1.6km/h 3.0mph /  4.8km/h 86% 0.00in /  0mm
18:21 14.9 °F /  -9.5 °C 11.5 °F /  -11.4 °C 30.13in /  1020.2hPa SSW 1.0mph /  1.6km/h 3.0mph /  4.8km/h 86% 0.00in /  0mm
18:26 14.9 °F /  -9.5 °C 11.5 °F /  -11.4 °C 30.13in /  1020.2hPa SW 2.0mph /  3.2km/h 3.0mph /  4.8km/h 86% 0.00in /  0mm
18:31 14.9 °F /  -9.5 °C 11.5 °F /  -11.4 °C 30.13in /  1020.2hPa SW 3.0mph /  4.8km/h 6.0mph /  9.7km/h 86% 0.00in /  0mm
18:36 14.9 °F /  -9.5 °C 11.5 °F /  -11.4 °C 30.13in /  1020.2hPa SSW 3.0mph /  4.8km/h 6.0mph /  9.7km/h 86% 0.00in /  0mm
18:41 14.9 °F /  -9.5 °C 11.2 °F /  -11.6 °C 30.13in /  1020.2hPa SSW 2.0mph /  3.2km/h 5.0mph /  8km/h 85% 0.00in /  0mm
18:46 14.9 °F /  -9.5 °C 11.5 °F /  -11.4 °C 30.13in /  1020.2hPa SSW 3.0mph /  4.8km/h 6.0mph /  9.7km/h 86% 0.00in /  0mm
18:51 14.9 °F /  -9.5 °C 11.5 °F /  -11.4 °C 30.13in /  1020.2hPa SSW 3.0mph /  4.8km/h 6.0mph /  9.7km/h 86% 0.00in /  0mm
18:56 14.9 °F /  -9.5 °C 11.5 °F /  -11.4 °C 30.13in /  1020.2hPa SSW 3.0mph /  4.8km/h 6.0mph /  9.7km/h 86% 0.00in /  0mm
19:01 15.0 °F /  -9.4 °C 11.6 °F /  -11.3 °C 30.13in /  1020.2hPa SW 4.0mph /  6.4km/h 6.0mph /  9.7km/h 86% 0.00in /  0mm
19:06 15.1 °F /  -9.4 °C 11.4 °F /  -11.4 °C 30.13in /  1020.2hPa SSW 3.0mph /  4.8km/h 6.0mph /  9.7km/h 85% 0.00in /  0mm
19:11 15.2 °F /  -9.3 °C 11.5 °F /  -11.4 °C 30.13in /  1020.2hPa SSW 4.0mph /  6.4km/h 6.0mph /  9.7km/h 85% 0.00in /  0mm
19:16 15.2 °F /  -9.3 °C 11.5 °F /  -11.4 °C 30.13in /  1020.2hPa SSW 1.0mph /  1.6km/h 6.0mph /  9.7km/h 85% 0.00in /  0mm
19:21 15.3 °F /  -9.3 °C 11.3 °F /  -11.5 °C 30.13in /  1020.2hPa SSW 3.0mph /  4.8km/h 6.0mph /  9.7km/h 84% 0.00in /  0mm
19:26 15.4 °F /  -9.2 °C 11.4 °F /  -11.4 °C 30.13in /  1020.2hPa SW 4.0mph /  6.4km/h 7.0mph /  11.3km/h 84% 0.00in /  0mm
19:31 15.6 °F /  -9.1 °C 11.4 °F /  -11.4 °C 30.13in /  1020.2hPa SSW 3.0mph /  4.8km/h 8.0mph /  12.9km/h 83% 0.00in /  0mm
19:36 15.7 °F /  -9.1 °C 11.5 °F /  -11.4 °C 30.13in /  1020.2hPa SSW 4.0mph /  6.4km/h 8.0mph /  12.9km/h 83% 0.00in /  0mm
19:41 15.6 °F /  -9.1 °C 11.4 °F /  -11.4 °C 30.13in /  1020.2hPa SSW 3.0mph /  4.8km/h 8.0mph /  12.9km/h 83% 0.00in /  0mm
19:46 15.5 °F /  -9.2 °C 11.5 °F /  -11.4 °C 30.14in /  1020.5hPa SSW 3.0mph /  4.8km/h 8.0mph /  12.9km/h 84% 0.00in /  0mm
19:51 15.4 °F /  -9.2 °C 11.4 °F /  -11.4 °C 30.14in /  1020.5hPa SSW 3.0mph /  4.8km/h 8.0mph /  12.9km/h 84% 0.00in /  0mm
19:56 15.4 °F /  -9.2 °C 11.4 °F /  -11.4 °C 30.14in /  1020.5hPa SSW 4.0mph /  6.4km/h 8.0mph /  12.9km/h 84% 0.00in /  0mm
20:01 15.4 °F /  -9.2 °C 11.4 °F /  -11.4 °C 30.14in /  1020.5hPa SSW 4.0mph /  6.4km/h 8.0mph /  12.9km/h 84% 0.00in /  0mm
20:06 15.4 °F /  -9.2 °C 11.7 °F /  -11.3 °C 30.14in /  1020.5hPa SSW 4.0mph /  6.4km/h 9.0mph /  14.5km/h 85% 0.00in /  0mm
20:11 15.4 °F /  -9.2 °C 11.4 °F /  -11.4 °C 30.14in /  1020.5hPa SSW 5.0mph /  8km/h 10.0mph /  16.1km/h 84% 0.00in /  0mm
20:16 15.4 °F /  -9.2 °C 11.4 °F /  -11.4 °C 30.14in /  1020.5hPa SW 4.0mph /  6.4km/h 10.0mph /  16.1km/h 84% 0.00in /  0mm
20:21 15.3 °F /  -9.3 °C 11.3 °F /  -11.5 °C 30.14in /  1020.5hPa SSW 5.0mph /  8km/h 8.0mph /  12.9km/h 84% 0.00in /  0mm
20:26 15.4 °F /  -9.2 °C 11.4 °F /  -11.4 °C 30.14in /  1020.5hPa SSW 5.0mph /  8km/h 9.0mph /  14.5km/h 84% 0.00in /  0mm
20:31 15.4 °F /  -9.2 °C 11.4 °F /  -11.4 °C 30.14in /  1020.5hPa SSW 3.0mph /  4.8km/h 9.0mph /  14.5km/h 84% 0.00in /  0mm
20:36 15.4 °F /  -9.2 °C 11.4 °F /  -11.4 °C 30.14in /  1020.5hPa SSW 4.0mph /  6.4km/h 9.0mph /  14.5km/h 84% 0.00in /  0mm
20:41 15.3 °F /  -9.3 °C 11.3 °F /  -11.5 °C 30.14in /  1020.5hPa SSW 3.0mph /  4.8km/h 8.0mph /  12.9km/h 84% 0.00in /  0mm
20:46 15.4 °F /  -9.2 °C 11.4 °F /  -11.4 °C 30.14in /  1020.5hPa SSW 2.0mph /  3.2km/h 8.0mph /  12.9km/h 84% 0.00in /  0mm
20:51 15.3 °F /  -9.3 °C 11.6 °F /  -11.3 °C 30.14in /  1020.5hPa SSW 3.0mph /  4.8km/h 8.0mph /  12.9km/h 85% 0.00in /  0mm
20:56 15.3 °F /  -9.3 °C 11.6 °F /  -11.3 °C 30.14in /  1020.5hPa SSW 4.0mph /  6.4km/h 8.0mph /  12.9km/h 85% 0.00in /  0mm
21:01 15.3 °F /  -9.3 °C 11.6 °F /  -11.3 °C 30.14in /  1020.5hPa SSW 3.0mph /  4.8km/h 8.0mph /  12.9km/h 85% 0.00in /  0mm
21:06 15.3 °F /  -9.3 °C 11.9 °F /  -11.2 °C 30.15in /  1020.9hPa SSW 2.0mph /  3.2km/h 7.0mph /  11.3km/h 86% 0.00in /  0mm
21:11 15.2 °F /  -9.3 °C 11.8 °F /  -11.2 °C 30.15in /  1020.9hPa SSW 2.0mph /  3.2km/h 6.0mph /  9.7km/h 86% 0.00in /  0mm
21:16 15.3 °F /  -9.3 °C 11.9 °F /  -11.2 °C 30.14in /  1020.5hPa SSW 2.0mph /  3.2km/h 6.0mph /  9.7km/h 86% 0.00in /  0mm
21:21 15.3 °F /  -9.3 °C 11.9 °F /  -11.2 °C 30.14in /  1020.5hPa SSW 2.0mph /  3.2km/h 5.0mph /  8km/h 86% 0.00in /  0mm
21:26 15.3 °F /  -9.3 °C 11.9 °F /  -11.2 °C 30.14in /  1020.5hPa SSW 2.0mph /  3.2km/h 5.0mph /  8km/h 86% 0.00in /  0mm
21:31 15.2 °F /  -9.3 °C 12.0 °F /  -11.1 °C 30.14in /  1020.5hPa SSW 3.0mph /  4.8km/h 5.0mph /  8km/h 87% 0.00in /  0mm
21:36 15.3 °F /  -9.3 °C 12.1 °F /  -11.1 °C 30.14in /  1020.5hPa SW 3.0mph /  4.8km/h 5.0mph /  8km/h 87% 0.00in /  0mm
21:41 15.4 °F /  -9.2 °C 12.2 °F /  -11 °C 30.14in /  1020.5hPa SW 2.0mph /  3.2km/h 6.0mph /  9.7km/h 87% 0.00in /  0mm
21:46 15.5 °F /  -9.2 °C 12.3 °F /  -10.9 °C 30.14in /  1020.5hPa SSW 4.0mph /  6.4km/h 8.0mph /  12.9km/h 87% 0.00in /  0mm
21:51 15.6 °F /  -9.1 °C 12.4 °F /  -10.9 °C 30.14in /  1020.5hPa SSW 4.0mph /  6.4km/h 8.0mph /  12.9km/h 87% 0.00in /  0mm
21:56 15.7 °F /  -9.1 °C 12.5 °F /  -10.8 °C 30.14in /  1020.5hPa SSW 5.0mph /  8km/h 8.0mph /  12.9km/h 87% 0.00in /  0mm
22:01 15.7 °F /  -9.1 °C 12.5 °F /  -10.8 °C 30.14in /  1020.5hPa SSW 3.0mph /  4.8km/h 8.0mph /  12.9km/h 87% 0.00in /  0mm
22:06 15.7 °F /  -9.1 °C 12.5 °F /  -10.8 °C 30.14in /  1020.5hPa SSW 3.0mph /  4.8km/h 8.0mph /  12.9km/h 87% 0.00in /  0mm
22:11 15.8 °F /  -9 °C 12.6 °F /  -10.8 °C 30.14in /  1020.5hPa SSW 2.0mph /  3.2km/h 7.0mph /  11.3km/h 87% 0.00in /  0mm
22:16 15.8 °F /  -9 °C 12.6 °F /  -10.8 °C 30.14in /  1020.5hPa SSW 2.0mph /  3.2km/h 7.0mph /  11.3km/h 87% 0.00in /  0mm
22:21 15.9 °F /  -8.9 °C 12.7 °F /  -10.7 °C 30.14in /  1020.5hPa SSW 3.0mph /  4.8km/h 7.0mph /  11.3km/h 87% 0.00in /  0mm
22:26 15.9 °F /  -8.9 °C 12.7 °F /  -10.7 °C 30.14in /  1020.5hPa SSW 3.0mph /  4.8km/h 6.0mph /  9.7km/h 87% 0.00in /  0mm
22:31 15.9 °F /  -8.9 °C 12.7 °F /  -10.7 °C 30.14in /  1020.5hPa SSW 4.0mph /  6.4km/h 6.0mph /  9.7km/h 87% 0.00in /  0mm
22:36 16.0 °F /  -8.9 °C 13.1 °F /  -10.5 °C 30.14in /  1020.5hPa SSW 3.0mph /  4.8km/h 7.0mph /  11.3km/h 88% 0.00in /  0mm
22:41 16.1 °F /  -8.8 °C 13.2 °F /  -10.4 °C 30.14in /  1020.5hPa South 1.0mph /  1.6km/h 7.0mph /  11.3km/h 88% 0.00in /  0mm
22:46 16.1 °F /  -8.8 °C 13.2 °F /  -10.4 °C 30.14in /  1020.5hPa SSW 2.0mph /  3.2km/h 7.0mph /  11.3km/h 88% 0.00in /  0mm
22:51 16.2 °F /  -8.8 °C 13.3 °F /  -10.4 °C 30.14in /  1020.5hPa South 2.0mph /  3.2km/h 7.0mph /  11.3km/h 88% 0.00in /  0mm
22:56 16.3 °F /  -8.7 °C 13.4 °F /  -10.3 °C 30.14in /  1020.5hPa SSW 1.0mph /  1.6km/h 6.0mph /  9.7km/h 88% 0.00in /  0mm
23:01 16.4 °F /  -8.7 °C 13.5 °F /  -10.3 °C 30.15in /  1020.9hPa Calm   6.0mph /  9.7km/h 88% 0.00in /  0mm
23:06 16.4 °F /  -8.7 °C 13.5 °F /  -10.3 °C 30.15in /  1020.9hPa Calm   4.0mph /  6.4km/h 88% 0.00in /  0mm
23:11 16.5 °F /  -8.6 °C 13.6 °F /  -10.2 °C 30.15in /  1020.9hPa Calm   2.0mph /  3.2km/h 88% 0.00in /  0mm
23:16 16.5 °F /  -8.6 °C 13.6 °F /  -10.2 °C 30.15in /  1020.9hPa Calm   1.0mph /  1.6km/h 88% 0.00in /  0mm
23:21 16.3 °F /  -8.7 °C 13.4 °F /  -10.3 °C 30.15in /  1020.9hPa Calm   1.0mph /  1.6km/h 88% 0.00in /  0mm
23:26 16.3 °F /  -8.7 °C 13.4 °F /  -10.3 °C 30.15in /  1020.9hPa Calm     88% 0.00in /  0mm
23:31 16.2 °F /  -8.8 °C 13.3 °F /  -10.4 °C 30.15in /  1020.9hPa Calm     88% 0.00in /  0mm
23:36 16.2 °F /  -8.8 °C 13.3 °F /  -10.4 °C 30.15in /  1020.9hPa Calm     88% 0.00in /  0mm
23:41 16.2 °F /  -8.8 °C 13.3 °F /  -10.4 °C 30.15in /  1020.9hPa Calm   1.0mph /  1.6km/h 88% 0.00in /  0mm
23:46 16.2 °F /  -8.8 °C 13.3 °F /  -10.4 °C 30.15in /  1020.9hPa Calm   1.0mph /  1.6km/h 88% 0.00in /  0mm
23:51 16.4 °F /  -8.7 °C 13.5 °F /  -10.3 °C 30.15in /  1020.9hPa Calm     88% 0.00in /  0mm
23:56 16.7 °F /  -8.5 °C 14.0 °F /  -10 °C 30.15in /  1020.9hPa SSW 1.0mph /  1.6km/h 3.0mph /  4.8km/h 89% 0.00in /  0mm
Westford Weather
Compliments of Weather Underground

 
 
Current Radar Loop:

Copyright © WestfordWeather.net 2007-2014. All rights reserved.